sensor_id;sensor_type;location;lat;lon;timestamp;P1;durP1;ratioP1;P2;durP2;ratioP2
76903;SDS011;65865;51.698;-0.292;2023-09-30T00:01:17;1.92;;;0.52;;
76903;SDS011;65865;51.698;-0.292;2023-09-30T00:03:44;1.55;;;0.40;;
76903;SDS011;65865;51.698;-0.292;2023-09-30T00:06:10;2.35;;;0.57;;
76903;SDS011;65865;51.698;-0.292;2023-09-30T00:08:36;1.80;;;0.45;;
76903;SDS011;65865;51.698;-0.292;2023-09-30T00:11:04;2.72;;;0.50;;
76903;SDS011;65865;51.698;-0.292;2023-09-30T00:13:31;1.55;;;0.35;;
76903;SDS011;65865;51.698;-0.292;2023-09-30T00:15:57;1.60;;;0.38;;
76903;SDS011;65865;51.698;-0.292;2023-09-30T00:18:23;2.33;;;0.30;;
76903;SDS011;65865;51.698;-0.292;2023-09-30T00:20:49;2.42;;;0.50;;
76903;SDS011;65865;51.698;-0.292;2023-09-30T00:23:15;1.25;;;0.35;;
76903;SDS011;65865;51.698;-0.292;2023-09-30T00:25:41;2.25;;;0.40;;
76903;SDS011;65865;51.698;-0.292;2023-09-30T00:28:07;2.38;;;0.40;;
76903;SDS011;65865;51.698;-0.292;2023-09-30T00:30:33;2.58;;;0.60;;
76903;SDS011;65865;51.698;-0.292;2023-09-30T00:32:59;2.55;;;0.50;;
76903;SDS011;65865;51.698;-0.292;2023-09-30T00:35:25;2.20;;;0.30;;
76903;SDS011;65865;51.698;-0.292;2023-09-30T00:37:51;1.95;;;0.40;;
76903;SDS011;65865;51.698;-0.292;2023-09-30T00:40:17;2.03;;;0.50;;
76903;SDS011;65865;51.698;-0.292;2023-09-30T00:42:43;1.15;;;0.47;;
76903;SDS011;65865;51.698;-0.292;2023-09-30T00:45:09;1.70;;;0.40;;
76903;SDS011;65865;51.698;-0.292;2023-09-30T00:47:36;1.20;;;0.40;;
76903;SDS011;65865;51.698;-0.292;2023-09-30T00:50:03;1.70;;;0.40;;
76903;SDS011;65865;51.698;-0.292;2023-09-30T00:52:30;1.95;;;0.45;;
76903;SDS011;65865;51.698;-0.292;2023-09-30T00:54:58;2.80;;;0.60;;
76903;SDS011;65865;51.698;-0.292;2023-09-30T00:57:24;0.95;;;0.20;;
76903;SDS011;65865;51.698;-0.292;2023-09-30T00:59:51;1.52;;;0.38;;
76903;SDS011;65865;51.698;-0.292;2023-09-30T01:02:17;1.85;;;0.50;;
76903;SDS011;65865;51.698;-0.292;2023-09-30T01:04:44;1.60;;;0.52;;
76903;SDS011;65865;51.698;-0.292;2023-09-30T01:07:10;1.70;;;0.50;;
76903;SDS011;65865;51.698;-0.292;2023-09-30T01:09:37;1.20;;;0.20;;
76903;SDS011;65865;51.698;-0.292;2023-09-30T01:12:03;2.50;;;0.32;;
76903;SDS011;65865;51.698;-0.292;2023-09-30T01:16:56;2.40;;;0.40;;
76903;SDS011;65865;51.698;-0.292;2023-09-30T01:19:22;1.75;;;0.65;;
76903;SDS011;65865;51.698;-0.292;2023-09-30T01:21:50;1.58;;;0.50;;
76903;SDS011;65865;51.698;-0.292;2023-09-30T01:24:16;2.38;;;0.38;;
76903;SDS011;65865;51.698;-0.292;2023-09-30T01:26:42;1.95;;;0.43;;
76903;SDS011;65865;51.698;-0.292;2023-09-30T01:29:08;1.73;;;0.40;;
76903;SDS011;65865;51.698;-0.292;2023-09-30T01:31:36;0.98;;;0.30;;
76903;SDS011;65865;51.698;-0.292;2023-09-30T01:34:02;1.45;;;0.63;;
76903;SDS011;65865;51.698;-0.292;2023-09-30T01:36:28;2.00;;;0.70;;
76903;SDS011;65865;51.698;-0.292;2023-09-30T01:38:54;1.92;;;0.47;;
76903;SDS011;65865;51.698;-0.292;2023-09-30T01:41:20;1.67;;;0.47;;
76903;SDS011;65865;51.698;-0.292;2023-09-30T01:43:46;1.63;;;0.43;;
76903;SDS011;65865;51.698;-0.292;2023-09-30T01:46:12;1.90;;;0.50;;
76903;SDS011;65865;51.698;-0.292;2023-09-30T01:48:38;1.17;;;0.32;;
76903;SDS011;65865;51.698;-0.292;2023-09-30T01:51:04;2.53;;;0.52;;
76903;SDS011;65865;51.698;-0.292;2023-09-30T01:53:31;2.00;;;0.40;;
76903;SDS011;65865;51.698;-0.292;2023-09-30T01:55:57;2.83;;;0.60;;
76903;SDS011;65865;51.698;-0.292;2023-09-30T01:58:23;3.10;;;0.68;;
76903;SDS011;65865;51.698;-0.292;2023-09-30T02:00:50;2.15;;;0.47;;
76903;SDS011;65865;51.698;-0.292;2023-09-30T02:03:16;3.20;;;0.50;;
76903;SDS011;65865;51.698;-0.292;2023-09-30T02:05:42;3.05;;;0.63;;
76903;SDS011;65865;51.698;-0.292;2023-09-30T02:08:08;1.00;;;0.38;;
76903;SDS011;65865;51.698;-0.292;2023-09-30T02:10:35;1.88;;;0.40;;
76903;SDS011;65865;51.698;-0.292;2023-09-30T02:13:01;2.05;;;0.52;;
76903;SDS011;65865;51.698;-0.292;2023-09-30T02:15:31;3.05;;;0.63;;
76903;SDS011;65865;51.698;-0.292;2023-09-30T02:17:57;1.95;;;0.73;;
76903;SDS011;65865;51.698;-0.292;2023-09-30T02:20:25;2.45;;;0.80;;
76903;SDS011;65865;51.698;-0.292;2023-09-30T02:22:55;2.40;;;0.70;;
76903;SDS011;65865;51.698;-0.292;2023-09-30T02:25:21;3.85;;;0.50;;
76903;SDS011;65865;51.698;-0.292;2023-09-30T02:27:49;2.00;;;0.60;;
76903;SDS011;65865;51.698;-0.292;2023-09-30T02:30:15;2.20;;;0.50;;
76903;SDS011;65865;51.698;-0.292;2023-09-30T02:32:41;3.08;;;0.85;;
76903;SDS011;65865;51.698;-0.292;2023-09-30T02:35:08;2.83;;;0.65;;
76903;SDS011;65865;51.698;-0.292;2023-09-30T02:37:37;2.35;;;0.50;;
76903;SDS011;65865;51.698;-0.292;2023-09-30T02:40:03;2.38;;;0.50;;
76903;SDS011;65865;51.698;-0.292;2023-09-30T02:42:30;2.95;;;0.70;;
76903;SDS011;65865;51.698;-0.292;2023-09-30T02:44:59;2.20;;;0.60;;
76903;SDS011;65865;51.698;-0.292;2023-09-30T02:47:26;2.15;;;0.73;;
76903;SDS011;65865;51.698;-0.292;2023-09-30T02:49:52;2.50;;;0.60;;
76903;SDS011;65865;51.698;-0.292;2023-09-30T02:52:18;2.15;;;0.50;;
76903;SDS011;65865;51.698;-0.292;2023-09-30T02:54:44;1.98;;;0.43;;
76903;SDS011;65865;51.698;-0.292;2023-09-30T02:57:10;2.33;;;0.50;;
76903;SDS011;65865;51.698;-0.292;2023-09-30T02:59:35;1.52;;;0.40;;
76903;SDS011;65865;51.698;-0.292;2023-09-30T03:02:02;2.13;;;0.60;;
76903;SDS011;65865;51.698;-0.292;2023-09-30T03:04:28;3.08;;;0.65;;
76903;SDS011;65865;51.698;-0.292;2023-09-30T03:06:55;2.83;;;0.52;;
76903;SDS011;65865;51.698;-0.292;2023-09-30T03:09:22;3.72;;;0.77;;
76903;SDS011;65865;51.698;-0.292;2023-09-30T03:11:48;2.08;;;0.50;;
76903;SDS011;65865;51.698;-0.292;2023-09-30T03:14:14;2.20;;;0.50;;
76903;SDS011;65865;51.698;-0.292;2023-09-30T03:16:41;2.78;;;0.50;;
76903;SDS011;65865;51.698;-0.292;2023-09-30T03:19:08;2.55;;;0.50;;
76903;SDS011;65865;51.698;-0.292;2023-09-30T03:21:36;2.65;;;0.70;;
76903;SDS011;65865;51.698;-0.292;2023-09-30T03:24:05;2.88;;;0.80;;
76903;SDS011;65865;51.698;-0.292;2023-09-30T03:26:33;1.73;;;0.50;;
76903;SDS011;65865;51.698;-0.292;2023-09-30T03:28:59;2.05;;;0.38;;
76903;SDS011;65865;51.698;-0.292;2023-09-30T03:31:25;2.70;;;0.70;;
76903;SDS011;65865;51.698;-0.292;2023-09-30T03:33:51;3.38;;;0.50;;
76903;SDS011;65865;51.698;-0.292;2023-09-30T03:36:22;2.08;;;0.60;;
76903;SDS011;65865;51.698;-0.292;2023-09-30T03:38:49;3.15;;;0.63;;
76903;SDS011;65865;51.698;-0.292;2023-09-30T03:41:15;1.92;;;0.52;;
76903;SDS011;65865;51.698;-0.292;2023-09-30T03:43:43;2.17;;;0.60;;
76903;SDS011;65865;51.698;-0.292;2023-09-30T03:46:09;2.03;;;0.45;;
76903;SDS011;65865;51.698;-0.292;2023-09-30T03:48:37;1.88;;;0.40;;
76903;SDS011;65865;51.698;-0.292;2023-09-30T03:51:10;1.65;;;0.50;;
76903;SDS011;65865;51.698;-0.292;2023-09-30T03:53:40;2.78;;;0.63;;
76903;SDS011;65865;51.698;-0.292;2023-09-30T03:56:06;1.83;;;0.52;;
76903;SDS011;65865;51.698;-0.292;2023-09-30T03:58:32;1.52;;;0.52;;
76903;SDS011;65865;51.698;-0.292;2023-09-30T04:00:59;1.75;;;0.63;;
76903;SDS011;65865;51.698;-0.292;2023-09-30T04:03:25;1.33;;;0.60;;
76903;SDS011;65865;51.698;-0.292;2023-09-30T04:05:54;2.97;;;0.70;;
76903;SDS011;65865;51.698;-0.292;2023-09-30T04:08:21;2.00;;;0.65;;
76903;SDS011;65865;51.698;-0.292;2023-09-30T04:10:47;2.08;;;0.60;;
76903;SDS011;65865;51.698;-0.292;2023-09-30T04:13:14;1.90;;;0.73;;
76903;SDS011;65865;51.698;-0.292;2023-09-30T04:15:40;1.95;;;0.55;;
76903;SDS011;65865;51.698;-0.292;2023-09-30T04:18:06;2.45;;;0.52;;
76903;SDS011;65865;51.698;-0.292;2023-09-30T04:20:32;2.00;;;0.60;;
76903;SDS011;65865;51.698;-0.292;2023-09-30T04:22:58;2.67;;;0.50;;
76903;SDS011;65865;51.698;-0.292;2023-09-30T04:25:24;2.92;;;0.60;;
76903;SDS011;65865;51.698;-0.292;2023-09-30T04:27:51;1.77;;;0.43;;
76903;SDS011;65865;51.698;-0.292;2023-09-30T04:30:17;3.15;;;0.70;;
76903;SDS011;65865;51.698;-0.292;2023-09-30T04:32:44;2.17;;;0.70;;
76903;SDS011;65865;51.698;-0.292;2023-09-30T04:35:10;2.38;;;0.60;;
76903;SDS011;65865;51.698;-0.292;2023-09-30T04:37:37;2.55;;;0.50;;
76903;SDS011;65865;51.698;-0.292;2023-09-30T04:40:12;1.50;;;0.75;;
76903;SDS011;65865;51.698;-0.292;2023-09-30T04:42:47;2.55;;;0.85;;
76903;SDS011;65865;51.698;-0.292;2023-09-30T04:45:14;1.60;;;0.47;;
76903;SDS011;65865;51.698;-0.292;2023-09-30T04:47:41;2.22;;;0.40;;
76903;SDS011;65865;51.698;-0.292;2023-09-30T04:52:36;2.05;;;0.52;;
76903;SDS011;65865;51.698;-0.292;2023-09-30T04:55:04;2.08;;;0.77;;
76903;SDS011;65865;51.698;-0.292;2023-09-30T04:57:30;2.28;;;0.60;;
76903;SDS011;65865;51.698;-0.292;2023-09-30T04:59:56;2.22;;;0.73;;
76903;SDS011;65865;51.698;-0.292;2023-09-30T05:02:23;2.47;;;0.55;;
76903;SDS011;65865;51.698;-0.292;2023-09-30T05:04:49;2.33;;;0.52;;
76903;SDS011;65865;51.698;-0.292;2023-09-30T05:07:15;2.65;;;0.77;;
76903;SDS011;65865;51.698;-0.292;2023-09-30T05:09:41;1.58;;;0.43;;
76903;SDS011;65865;51.698;-0.292;2023-09-30T05:12:08;2.15;;;0.45;;
76903;SDS011;65865;51.698;-0.292;2023-09-30T05:14:35;1.92;;;0.40;;
76903;SDS011;65865;51.698;-0.292;2023-09-30T05:17:01;2.25;;;0.40;;
76903;SDS011;65865;51.698;-0.292;2023-09-30T05:21:57;2.20;;;0.63;;
76903;SDS011;65865;51.698;-0.292;2023-09-30T05:24:23;2.67;;;0.43;;
76903;SDS011;65865;51.698;-0.292;2023-09-30T05:26:49;2.15;;;0.73;;
76903;SDS011;65865;51.698;-0.292;2023-09-30T05:29:15;2.88;;;0.70;;
76903;SDS011;65865;51.698;-0.292;2023-09-30T05:31:41;1.73;;;0.80;;
76903;SDS011;65865;51.698;-0.292;2023-09-30T05:34:07;1.65;;;0.40;;
76903;SDS011;65865;51.698;-0.292;2023-09-30T05:36:33;3.92;;;0.90;;
76903;SDS011;65865;51.698;-0.292;2023-09-30T05:39:00;2.70;;;0.57;;
76903;SDS011;65865;51.698;-0.292;2023-09-30T05:41:27;3.85;;;0.73;;
76903;SDS011;65865;51.698;-0.292;2023-09-30T05:43:54;2.95;;;0.60;;
76903;SDS011;65865;51.698;-0.292;2023-09-30T05:46:20;1.75;;;0.50;;
76903;SDS011;65865;51.698;-0.292;2023-09-30T05:48:46;2.33;;;0.80;;
76903;SDS011;65865;51.698;-0.292;2023-09-30T05:51:12;1.85;;;0.65;;
76903;SDS011;65865;51.698;-0.292;2023-09-30T05:53:40;3.58;;;0.60;;
76903;SDS011;65865;51.698;-0.292;2023-09-30T05:56:06;2.30;;;0.52;;
76903;SDS011;65865;51.698;-0.292;2023-09-30T05:58:32;2.53;;;0.68;;
76903;SDS011;65865;51.698;-0.292;2023-09-30T06:00:58;2.97;;;0.70;;
76903;SDS011;65865;51.698;-0.292;2023-09-30T06:03:31;2.17;;;0.60;;
76903;SDS011;65865;51.698;-0.292;2023-09-30T06:05:58;3.28;;;0.77;;
76903;SDS011;65865;51.698;-0.292;2023-09-30T06:08:25;1.92;;;0.50;;
76903;SDS011;65865;51.698;-0.292;2023-09-30T06:10:51;1.40;;;0.55;;
76903;SDS011;65865;51.698;-0.292;2023-09-30T06:13:17;2.80;;;0.90;;
76903;SDS011;65865;51.698;-0.292;2023-09-30T06:15:43;2.20;;;0.32;;
76903;SDS011;65865;51.698;-0.292;2023-09-30T06:18:09;3.00;;;0.73;;
76903;SDS011;65865;51.698;-0.292;2023-09-30T06:20:38;3.17;;;0.55;;
76903;SDS011;65865;51.698;-0.292;2023-09-30T06:23:04;1.73;;;0.38;;
76903;SDS011;65865;51.698;-0.292;2023-09-30T06:25:30;1.48;;;0.68;;
76903;SDS011;65865;51.698;-0.292;2023-09-30T06:27:57;2.78;;;0.57;;
76903;SDS011;65865;51.698;-0.292;2023-09-30T06:30:24;2.80;;;0.47;;
76903;SDS011;65865;51.698;-0.292;2023-09-30T06:32:54;1.85;;;0.30;;
76903;SDS011;65865;51.698;-0.292;2023-09-30T06:35:20;2.33;;;0.50;;
76903;SDS011;65865;51.698;-0.292;2023-09-30T06:37:47;2.03;;;0.60;;
76903;SDS011;65865;51.698;-0.292;2023-09-30T06:40:13;2.10;;;0.50;;
76903;SDS011;65865;51.698;-0.292;2023-09-30T06:42:39;2.65;;;0.45;;
76903;SDS011;65865;51.698;-0.292;2023-09-30T06:45:06;3.00;;;0.43;;
76903;SDS011;65865;51.698;-0.292;2023-09-30T06:47:33;2.25;;;0.40;;
76903;SDS011;65865;51.698;-0.292;2023-09-30T06:50:09;2.78;;;0.73;;
76903;SDS011;65865;51.698;-0.292;2023-09-30T06:52:37;2.50;;;0.32;;
76903;SDS011;65865;51.698;-0.292;2023-09-30T06:55:04;1.92;;;0.80;;
76903;SDS011;65865;51.698;-0.292;2023-09-30T06:57:31;2.22;;;0.63;;
76903;SDS011;65865;51.698;-0.292;2023-09-30T06:59:57;2.17;;;0.43;;
76903;SDS011;65865;51.698;-0.292;2023-09-30T07:02:23;1.90;;;0.40;;
76903;SDS011;65865;51.698;-0.292;2023-09-30T07:04:49;2.58;;;0.40;;
76903;SDS011;65865;51.698;-0.292;2023-09-30T07:07:15;1.98;;;0.40;;
76903;SDS011;65865;51.698;-0.292;2023-09-30T07:09:43;2.05;;;0.50;;
76903;SDS011;65865;51.698;-0.292;2023-09-30T07:12:09;2.38;;;0.55;;
76903;SDS011;65865;51.698;-0.292;2023-09-30T07:14:35;2.15;;;0.57;;
76903;SDS011;65865;51.698;-0.292;2023-09-30T07:17:01;2.47;;;0.50;;
76903;SDS011;65865;51.698;-0.292;2023-09-30T07:19:29;8.45;;;0.70;;
76903;SDS011;65865;51.698;-0.292;2023-09-30T07:21:55;3.25;;;0.55;;
76903;SDS011;65865;51.698;-0.292;2023-09-30T07:24:22;3.83;;;0.93;;
76903;SDS011;65865;51.698;-0.292;2023-09-30T07:26:48;3.20;;;0.65;;
76903;SDS011;65865;51.698;-0.292;2023-09-30T07:29:14;2.72;;;0.85;;
76903;SDS011;65865;51.698;-0.292;2023-09-30T07:31:40;2.65;;;0.68;;
76903;SDS011;65865;51.698;-0.292;2023-09-30T07:34:06;3.42;;;0.73;;
76903;SDS011;65865;51.698;-0.292;2023-09-30T07:36:32;4.25;;;0.70;;
76903;SDS011;65865;51.698;-0.292;2023-09-30T07:38:58;3.30;;;0.60;;
76903;SDS011;65865;51.698;-0.292;2023-09-30T07:41:26;3.72;;;0.65;;
76903;SDS011;65865;51.698;-0.292;2023-09-30T07:43:52;2.22;;;0.60;;
76903;SDS011;65865;51.698;-0.292;2023-09-30T07:46:18;3.17;;;0.63;;
76903;SDS011;65865;51.698;-0.292;2023-09-30T07:48:44;2.60;;;0.60;;
76903;SDS011;65865;51.698;-0.292;2023-09-30T07:51:10;2.28;;;0.60;;
76903;SDS011;65865;51.698;-0.292;2023-09-30T08:06:15;3.42;;;0.80;;
76903;SDS011;65865;51.698;-0.292;2023-09-30T08:08:42;2.83;;;0.70;;
76903;SDS011;65865;51.698;-0.292;2023-09-30T08:11:08;2.50;;;0.73;;
76903;SDS011;65865;51.698;-0.292;2023-09-30T08:13:34;2.60;;;0.90;;
76903;SDS011;65865;51.698;-0.292;2023-09-30T08:16:00;3.60;;;0.90;;
76903;SDS011;65865;51.698;-0.292;2023-09-30T08:18:26;3.13;;;0.80;;
76903;SDS011;65865;51.698;-0.292;2023-09-30T08:20:52;4.18;;;0.85;;
76903;SDS011;65865;51.698;-0.292;2023-09-30T08:23:18;4.20;;;0.80;;
76903;SDS011;65865;51.698;-0.292;2023-09-30T08:25:44;4.10;;;0.80;;
76903;SDS011;65865;51.698;-0.292;2023-09-30T08:28:13;4.75;;;1.17;;
76903;SDS011;65865;51.698;-0.292;2023-09-30T08:30:39;3.28;;;0.82;;
76903;SDS011;65865;51.698;-0.292;2023-09-30T08:33:05;4.70;;;1.00;;
76903;SDS011;65865;51.698;-0.292;2023-09-30T08:35:38;4.75;;;0.90;;
76903;SDS011;65865;51.698;-0.292;2023-09-30T08:38:04;3.50;;;0.70;;
76903;SDS011;65865;51.698;-0.292;2023-09-30T08:40:30;4.10;;;1.50;;
76903;SDS011;65865;51.698;-0.292;2023-09-30T08:42:56;3.95;;;1.00;;
76903;SDS011;65865;51.698;-0.292;2023-09-30T08:45:22;2.85;;;0.82;;
76903;SDS011;65865;51.698;-0.292;2023-09-30T08:47:48;2.90;;;0.80;;
76903;SDS011;65865;51.698;-0.292;2023-09-30T08:50:16;5.28;;;0.95;;
76903;SDS011;65865;51.698;-0.292;2023-09-30T08:52:43;4.32;;;1.02;;
76903;SDS011;65865;51.698;-0.292;2023-09-30T08:55:10;3.85;;;0.75;;
76903;SDS011;65865;51.698;-0.292;2023-09-30T08:57:37;3.55;;;0.82;;
76903;SDS011;65865;51.698;-0.292;2023-09-30T09:00:07;3.53;;;0.70;;
76903;SDS011;65865;51.698;-0.292;2023-09-30T09:02:36;4.85;;;0.80;;
76903;SDS011;65865;51.698;-0.292;2023-09-30T09:05:02;4.43;;;1.23;;
76903;SDS011;65865;51.698;-0.292;2023-09-30T09:07:28;3.78;;;0.63;;
76903;SDS011;65865;51.698;-0.292;2023-09-30T09:10:29;3.60;;;0.80;;
76903;SDS011;65865;51.698;-0.292;2023-09-30T09:12:55;5.25;;;1.10;;
76903;SDS011;65865;51.698;-0.292;2023-09-30T09:15:25;3.85;;;0.88;;
76903;SDS011;65865;51.698;-0.292;2023-09-30T09:17:51;7.38;;;1.10;;
76903;SDS011;65865;51.698;-0.292;2023-09-30T09:20:18;5.18;;;0.98;;
76903;SDS011;65865;51.698;-0.292;2023-09-30T09:22:51;4.45;;;0.70;;
76903;SDS011;65865;51.698;-0.292;2023-09-30T09:25:18;3.33;;;0.73;;
76903;SDS011;65865;51.698;-0.292;2023-09-30T09:27:44;5.20;;;0.98;;
76903;SDS011;65865;51.698;-0.292;2023-09-30T09:30:17;5.28;;;0.95;;
76903;SDS011;65865;51.698;-0.292;2023-09-30T09:35:30;3.53;;;1.00;;
76903;SDS011;65865;51.698;-0.292;2023-09-30T09:40:24;4.00;;;0.93;;
76903;SDS011;65865;51.698;-0.292;2023-09-30T09:42:50;3.50;;;0.90;;
76903;SDS011;65865;51.698;-0.292;2023-09-30T09:45:19;4.20;;;0.80;;
76903;SDS011;65865;51.698;-0.292;2023-09-30T09:47:47;6.07;;;1.30;;
76903;SDS011;65865;51.698;-0.292;2023-09-30T09:50:14;5.70;;;0.90;;
76903;SDS011;65865;51.698;-0.292;2023-09-30T09:52:41;5.80;;;1.02;;
76903;SDS011;65865;51.698;-0.292;2023-09-30T09:55:08;5.20;;;1.10;;
76903;SDS011;65865;51.698;-0.292;2023-09-30T09:57:35;6.03;;;0.93;;
76903;SDS011;65865;51.698;-0.292;2023-09-30T10:00:03;7.72;;;1.30;;
76903;SDS011;65865;51.698;-0.292;2023-09-30T10:02:30;5.38;;;1.05;;
76903;SDS011;65865;51.698;-0.292;2023-09-30T10:04:58;4.97;;;1.27;;
76903;SDS011;65865;51.698;-0.292;2023-09-30T10:07:30;4.28;;;1.15;;
76903;SDS011;65865;51.698;-0.292;2023-09-30T10:09:59;5.50;;;1.00;;
76903;SDS011;65865;51.698;-0.292;2023-09-30T10:12:26;5.35;;;0.95;;
76903;SDS011;65865;51.698;-0.292;2023-09-30T10:14:52;4.50;;;1.33;;
76903;SDS011;65865;51.698;-0.292;2023-09-30T10:17:18;9.35;;;1.20;;
76903;SDS011;65865;51.698;-0.292;2023-09-30T10:20:03;3.42;;;0.90;;
76903;SDS011;65865;51.698;-0.292;2023-09-30T10:22:33;6.10;;;0.95;;
76903;SDS011;65865;51.698;-0.292;2023-09-30T10:24:59;6.90;;;1.10;;
76903;SDS011;65865;51.698;-0.292;2023-09-30T10:37:52;5.00;;;1.35;;
76903;SDS011;65865;51.698;-0.292;2023-09-30T10:40:38;4.53;;;1.10;;
76903;SDS011;65865;51.698;-0.292;2023-09-30T10:43:04;5.28;;;0.98;;
76903;SDS011;65865;51.698;-0.292;2023-09-30T10:45:43;6.40;;;1.58;;
76903;SDS011;65865;51.698;-0.292;2023-09-30T10:51:00;5.80;;;0.95;;
76903;SDS011;65865;51.698;-0.292;2023-09-30T10:53:29;4.97;;;1.17;;
76903;SDS011;65865;51.698;-0.292;2023-09-30T10:55:59;8.25;;;1.15;;
76903;SDS011;65865;51.698;-0.292;2023-09-30T10:58:44;3.75;;;1.00;;
76903;SDS011;65865;51.698;-0.292;2023-09-30T11:01:11;4.82;;;0.90;;
76903;SDS011;65865;51.698;-0.292;2023-09-30T11:03:38;9.20;;;1.35;;
76903;SDS011;65865;51.698;-0.292;2023-09-30T11:06:04;4.40;;;1.02;;
76903;SDS011;65865;51.698;-0.292;2023-09-30T11:08:30;5.78;;;0.93;;
76903;SDS011;65865;51.698;-0.292;2023-09-30T11:10:58;7.43;;;1.10;;
76903;SDS011;65865;51.698;-0.292;2023-09-30T11:13:30;7.00;;;1.40;;
76903;SDS011;65865;51.698;-0.292;2023-09-30T11:16:01;6.45;;;1.10;;
76903;SDS011;65865;51.698;-0.292;2023-09-30T11:18:28;4.75;;;1.35;;
76903;SDS011;65865;51.698;-0.292;2023-09-30T11:21:02;6.57;;;1.08;;
76903;SDS011;65865;51.698;-0.292;2023-09-30T11:23:29;6.00;;;1.17;;
76903;SDS011;65865;51.698;-0.292;2023-09-30T11:25:55;3.78;;;0.93;;
76903;SDS011;65865;51.698;-0.292;2023-09-30T11:28:22;4.88;;;1.17;;
76903;SDS011;65865;51.698;-0.292;2023-09-30T11:31:00;6.60;;;1.25;;
76903;SDS011;65865;51.698;-0.292;2023-09-30T11:33:33;6.90;;;0.82;;
76903;SDS011;65865;51.698;-0.292;2023-09-30T11:36:13;4.45;;;1.00;;
76903;SDS011;65865;51.698;-0.292;2023-09-30T11:38:43;3.47;;;0.75;;
76903;SDS011;65865;51.698;-0.292;2023-09-30T11:41:09;10.38;;;1.13;;
76903;SDS011;65865;51.698;-0.292;2023-09-30T11:43:35;6.68;;;1.05;;
76903;SDS011;65865;51.698;-0.292;2023-09-30T11:46:09;4.38;;;0.95;;
76903;SDS011;65865;51.698;-0.292;2023-09-30T11:51:02;4.68;;;0.57;;
76903;SDS011;65865;51.698;-0.292;2023-09-30T11:53:34;5.43;;;0.82;;
76903;SDS011;65865;51.698;-0.292;2023-09-30T11:56:01;3.65;;;0.75;;
76903;SDS011;65865;51.698;-0.292;2023-09-30T11:58:28;7.55;;;0.98;;
76903;SDS011;65865;51.698;-0.292;2023-09-30T12:00:59;3.05;;;0.60;;
76903;SDS011;65865;51.698;-0.292;2023-09-30T12:03:26;3.30;;;0.90;;
76903;SDS011;65865;51.698;-0.292;2023-09-30T12:05:53;6.78;;;0.93;;
76903;SDS011;65865;51.698;-0.292;2023-09-30T12:08:20;6.30;;;0.60;;
76903;SDS011;65865;51.698;-0.292;2023-09-30T12:10:47;4.68;;;1.00;;
76903;SDS011;65865;51.698;-0.292;2023-09-30T12:13:13;5.07;;;0.98;;
76903;SDS011;65865;51.698;-0.292;2023-09-30T12:15:40;4.03;;;0.77;;
76903;SDS011;65865;51.698;-0.292;2023-09-30T12:18:06;5.47;;;0.73;;
76903;SDS011;65865;51.698;-0.292;2023-09-30T12:20:32;4.63;;;0.85;;
76903;SDS011;65865;51.698;-0.292;2023-09-30T12:22:58;3.03;;;0.88;;
76903;SDS011;65865;51.698;-0.292;2023-09-30T12:25:24;4.72;;;0.77;;
76903;SDS011;65865;51.698;-0.292;2023-09-30T12:27:51;4.35;;;0.80;;
76903;SDS011;65865;51.698;-0.292;2023-09-30T12:30:20;5.32;;;1.10;;
76903;SDS011;65865;51.698;-0.292;2023-09-30T12:32:46;8.30;;;2.20;;
76903;SDS011;65865;51.698;-0.292;2023-09-30T12:35:12;6.68;;;1.70;;
76903;SDS011;65865;51.698;-0.292;2023-09-30T12:37:38;6.72;;;1.35;;
76903;SDS011;65865;51.698;-0.292;2023-09-30T12:40:05;6.35;;;1.40;;
76903;SDS011;65865;51.698;-0.292;2023-09-30T12:45:00;5.93;;;1.27;;
76903;SDS011;65865;51.698;-0.292;2023-09-30T12:47:26;6.32;;;1.38;;
76903;SDS011;65865;51.698;-0.292;2023-09-30T12:49:52;7.50;;;1.50;;
76903;SDS011;65865;51.698;-0.292;2023-09-30T12:52:19;7.38;;;1.33;;
76903;SDS011;65865;51.698;-0.292;2023-09-30T12:54:45;5.13;;;0.98;;
76903;SDS011;65865;51.698;-0.292;2023-09-30T12:57:13;5.72;;;1.23;;
76903;SDS011;65865;51.698;-0.292;2023-09-30T12:59:42;4.93;;;1.40;;
76903;SDS011;65865;51.698;-0.292;2023-09-30T13:02:11;6.70;;;1.10;;
76903;SDS011;65865;51.698;-0.292;2023-09-30T13:04:37;5.80;;;1.02;;
76903;SDS011;65865;51.698;-0.292;2023-09-30T13:07:11;6.45;;;1.10;;
76903;SDS011;65865;51.698;-0.292;2023-09-30T13:09:40;5.60;;;1.30;;
76903;SDS011;65865;51.698;-0.292;2023-09-30T13:12:06;5.70;;;1.55;;
76903;SDS011;65865;51.698;-0.292;2023-09-30T13:14:32;7.78;;;1.13;;
76903;SDS011;65865;51.698;-0.292;2023-09-30T13:16:59;4.28;;;0.98;;
76903;SDS011;65865;51.698;-0.292;2023-09-30T13:19:26;7.63;;;1.35;;
76903;SDS011;65865;51.698;-0.292;2023-09-30T13:21:52;5.90;;;1.40;;
76903;SDS011;65865;51.698;-0.292;2023-09-30T13:24:19;11.52;;;1.58;;
76903;SDS011;65865;51.698;-0.292;2023-09-30T13:26:45;5.30;;;1.17;;
76903;SDS011;65865;51.698;-0.292;2023-09-30T13:29:12;4.55;;;1.10;;
76903;SDS011;65865;51.698;-0.292;2023-09-30T13:31:38;6.20;;;1.20;;
76903;SDS011;65865;51.698;-0.292;2023-09-30T13:34:07;5.45;;;1.35;;
76903;SDS011;65865;51.698;-0.292;2023-09-30T13:36:33;6.28;;;1.40;;
76903;SDS011;65865;51.698;-0.292;2023-09-30T13:38:59;7.43;;;1.23;;
76903;SDS011;65865;51.698;-0.292;2023-09-30T13:41:26;8.35;;;1.23;;
76903;SDS011;65865;51.698;-0.292;2023-09-30T13:43:52;5.35;;;1.35;;
76903;SDS011;65865;51.698;-0.292;2023-09-30T13:46:18;5.38;;;1.08;;
76903;SDS011;65865;51.698;-0.292;2023-09-30T13:48:46;7.10;;;1.10;;
76903;SDS011;65865;51.698;-0.292;2023-09-30T13:51:17;5.85;;;1.15;;
76903;SDS011;65865;51.698;-0.292;2023-09-30T13:53:43;6.50;;;1.27;;
76903;SDS011;65865;51.698;-0.292;2023-09-30T13:56:09;5.30;;;0.98;;
76903;SDS011;65865;51.698;-0.292;2023-09-30T13:58:36;6.00;;;1.00;;
76903;SDS011;65865;51.698;-0.292;2023-09-30T14:01:02;3.80;;;0.88;;
76903;SDS011;65865;51.698;-0.292;2023-09-30T14:03:29;6.88;;;1.10;;
76903;SDS011;65865;51.698;-0.292;2023-09-30T14:05:55;5.93;;;1.40;;
76903;SDS011;65865;51.698;-0.292;2023-09-30T14:08:22;7.88;;;1.02;;
76903;SDS011;65865;51.698;-0.292;2023-09-30T14:10:49;5.78;;;0.90;;
76903;SDS011;65865;51.698;-0.292;2023-09-30T14:13:16;3.63;;;1.05;;
76903;SDS011;65865;51.698;-0.292;2023-09-30T14:15:42;7.43;;;1.02;;
76903;SDS011;65865;51.698;-0.292;2023-09-30T14:18:08;5.93;;;1.27;;
76903;SDS011;65865;51.698;-0.292;2023-09-30T14:20:34;4.43;;;1.00;;
76903;SDS011;65865;51.698;-0.292;2023-09-30T14:23:01;5.82;;;0.98;;
76903;SDS011;65865;51.698;-0.292;2023-09-30T14:25:27;3.78;;;0.80;;
76903;SDS011;65865;51.698;-0.292;2023-09-30T14:27:53;6.65;;;0.90;;
76903;SDS011;65865;51.698;-0.292;2023-09-30T14:30:19;4.00;;;1.02;;
76903;SDS011;65865;51.698;-0.292;2023-09-30T14:32:46;6.05;;;1.50;;
76903;SDS011;65865;51.698;-0.292;2023-09-30T14:35:12;4.07;;;0.80;;
76903;SDS011;65865;51.698;-0.292;2023-09-30T14:37:38;7.47;;;1.02;;
76903;SDS011;65865;51.698;-0.292;2023-09-30T14:40:05;9.88;;;2.38;;
76903;SDS011;65865;51.698;-0.292;2023-09-30T14:42:38;8.50;;;2.08;;
76903;SDS011;65865;51.698;-0.292;2023-09-30T14:45:04;8.52;;;1.75;;
76903;SDS011;65865;51.698;-0.292;2023-09-30T14:47:31;10.35;;;2.13;;
76903;SDS011;65865;51.698;-0.292;2023-09-30T14:49:58;8.30;;;1.67;;
76903;SDS011;65865;51.698;-0.292;2023-09-30T14:52:27;7.55;;;1.73;;
76903;SDS011;65865;51.698;-0.292;2023-09-30T14:54:53;7.25;;;1.60;;
76903;SDS011;65865;51.698;-0.292;2023-09-30T14:57:20;8.90;;;2.05;;
76903;SDS011;65865;51.698;-0.292;2023-09-30T14:59:47;7.75;;;2.00;;
76903;SDS011;65865;51.698;-0.292;2023-09-30T15:02:13;6.68;;;1.45;;
76903;SDS011;65865;51.698;-0.292;2023-09-30T15:04:40;8.43;;;2.38;;
76903;SDS011;65865;51.698;-0.292;2023-09-30T15:07:06;7.35;;;2.15;;
76903;SDS011;65865;51.698;-0.292;2023-09-30T15:09:32;10.98;;;2.40;;
76903;SDS011;65865;51.698;-0.292;2023-09-30T15:11:58;10.10;;;2.53;;
76903;SDS011;65865;51.698;-0.292;2023-09-30T15:14:24;9.70;;;2.70;;
76903;SDS011;65865;51.698;-0.292;2023-09-30T15:16:50;7.10;;;2.17;;